sensor_id;sensor_type;location;lat;lon;timestamp;pressure;altitude;pressure_sealevel;temperature;humidity
76011;BME280;64701;43.536;1.478;2023-03-12T00:01:28;99682.06;;;14.07;97.85
76011;BME280;64701;43.536;1.478;2023-03-12T00:03:57;99680.00;;;14.09;97.52
76011;BME280;64701;43.536;1.478;2023-03-12T00:06:22;99681.03;;;14.08;97.79
76011;BME280;64701;43.536;1.478;2023-03-12T00:08:47;99671.22;;;14.09;97.63
76011;BME280;64701;43.536;1.478;2023-03-12T00:11:15;99684.72;;;14.07;97.88
76011;BME280;64701;43.536;1.478;2023-03-12T00:13:40;99676.72;;;14.07;98.26
76011;BME280;64701;43.536;1.478;2023-03-12T00:16:15;99665.06;;;14.08;97.76
76011;BME280;64701;43.536;1.478;2023-03-12T00:18:40;99669.56;;;14.08;97.75
76011;BME280;64701;43.536;1.478;2023-03-12T00:21:06;99662.84;;;14.05;98.34
76011;BME280;64701;43.536;1.478;2023-03-12T00:23:31;99660.16;;;14.05;98.07
76011;BME280;64701;43.536;1.478;2023-03-12T00:26:03;99662.00;;;14.05;98.08
76011;BME280;64701;43.536;1.478;2023-03-12T00:28:29;99665.50;;;14.05;98.42
76011;BME280;64701;43.536;1.478;2023-03-12T00:30:54;99664.88;;;14.03;98.35
76011;BME280;64701;43.536;1.478;2023-03-12T00:33:20;99666.31;;;14.06;97.92
76011;BME280;64701;43.536;1.478;2023-03-12T00:35:45;99663.41;;;14.07;97.79
76011;BME280;64701;43.536;1.478;2023-03-12T00:38:10;99668.75;;;14.01;98.41
76011;BME280;64701;43.536;1.478;2023-03-12T00:40:36;99669.38;;;14.03;98.40
76011;BME280;64701;43.536;1.478;2023-03-12T00:43:03;99678.81;;;14.05;98.13
76011;BME280;64701;43.536;1.478;2023-03-12T00:45:28;99671.22;;;14.02;98.49
76011;BME280;64701;43.536;1.478;2023-03-12T00:47:53;99679.03;;;13.97;99.39
76011;BME280;64701;43.536;1.478;2023-03-12T00:50:19;99683.34;;;13.98;99.41
76011;BME280;64701;43.536;1.478;2023-03-12T00:52:45;99689.47;;;13.99;98.91
76011;BME280;64701;43.536;1.478;2023-03-12T00:55:10;99686.00;;;13.98;98.92
76011;BME280;64701;43.536;1.478;2023-03-12T00:57:35;99687.41;;;14.01;98.72
76011;BME280;64701;43.536;1.478;2023-03-12T01:00:00;99681.25;;;14.00;98.55
76011;BME280;64701;43.536;1.478;2023-03-12T01:02:26;99680.66;;;14.05;98.21
76011;BME280;64701;43.536;1.478;2023-03-12T01:04:51;99691.69;;;14.08;97.42
76011;BME280;64701;43.536;1.478;2023-03-12T01:07:16;99691.69;;;14.08;97.74
76011;BME280;64701;43.536;1.478;2023-03-12T01:09:42;99688.84;;;14.03;98.68
76011;BME280;64701;43.536;1.478;2023-03-12T01:12:07;99688.22;;;14.01;98.87
76011;BME280;64701;43.536;1.478;2023-03-12T01:14:32;99684.34;;;14.04;98.67
76011;BME280;64701;43.536;1.478;2023-03-12T01:16:58;99695.00;;;14.04;98.47
76011;BME280;64701;43.536;1.478;2023-03-12T01:19:23;99689.47;;;13.99;98.87
76011;BME280;64701;43.536;1.478;2023-03-12T01:21:48;99691.50;;;14.03;98.51
76011;BME280;64701;43.536;1.478;2023-03-12T01:24:14;99700.09;;;14.05;97.95
76011;BME280;64701;43.536;1.478;2023-03-12T01:26:39;99697.84;;;14.02;98.23
76011;BME280;64701;43.536;1.478;2023-03-12T01:29:04;99704.81;;;14.03;97.99
76011;BME280;64701;43.536;1.478;2023-03-12T01:31:30;99704.63;;;13.98;98.86
76011;BME280;64701;43.536;1.478;2023-03-12T01:33:55;99704.81;;;14.03;97.77
76011;BME280;64701;43.536;1.478;2023-03-12T01:36:24;99715.47;;;13.97;99.24
76011;BME280;64701;43.536;1.478;2023-03-12T01:38:51;99711.41;;;13.94;99.73
76011;BME280;64701;43.536;1.478;2023-03-12T01:41:16;99708.94;;;13.93;99.89
76011;BME280;64701;43.536;1.478;2023-03-12T01:43:42;99712.25;;;13.88;100.00
76011;BME280;64701;43.536;1.478;2023-03-12T01:49:10;99700.97;;;13.93;99.78
76011;BME280;64701;43.536;1.478;2023-03-12T01:51:37;99693.38;;;13.89;100.00
76011;BME280;64701;43.536;1.478;2023-03-12T01:54:06;99694.19;;;13.90;99.71
76011;BME280;64701;43.536;1.478;2023-03-12T01:56:33;99697.88;;;13.89;100.00
76011;BME280;64701;43.536;1.478;2023-03-12T01:59:02;99693.38;;;13.89;100.00
76011;BME280;64701;43.536;1.478;2023-03-12T02:01:28;99699.53;;;13.90;100.00
76011;BME280;64701;43.536;1.478;2023-03-12T02:03:54;99690.50;;;13.91;99.72
76011;BME280;64701;43.536;1.478;2023-03-12T02:06:22;99694.81;;;13.92;99.56
76011;BME280;64701;43.536;1.478;2023-03-12T02:08:49;99692.56;;;13.89;99.86
76011;BME280;64701;43.536;1.478;2023-03-12T02:11:14;99691.72;;;13.88;100.00
76011;BME280;64701;43.536;1.478;2023-03-12T02:13:40;99696.84;;;13.90;99.53
76011;BME280;64701;43.536;1.478;2023-03-12T02:16:05;99701.59;;;13.88;99.90
76011;BME280;64701;43.536;1.478;2023-03-12T02:18:31;99693.38;;;13.89;99.93
76011;BME280;64701;43.536;1.478;2023-03-12T02:21:01;99699.94;;;13.87;100.00
76011;BME280;64701;43.536;1.478;2023-03-12T02:23:44;99699.34;;;13.85;100.00
76011;BME280;64701;43.536;1.478;2023-03-12T02:26:11;99699.34;;;13.85;100.00
76011;BME280;64701;43.536;1.478;2023-03-12T02:28:37;99699.72;;;13.88;99.73
76011;BME280;64701;43.536;1.478;2023-03-12T02:31:08;99693.63;;;13.81;100.00
76011;BME280;64701;43.536;1.478;2023-03-12T02:33:34;99697.28;;;13.87;99.99
76011;BME280;64701;43.536;1.478;2023-03-12T02:36:00;99696.28;;;13.81;100.00
76011;BME280;64701;43.536;1.478;2023-03-12T02:38:36;99701.19;;;13.78;100.00
76011;BME280;64701;43.536;1.478;2023-03-12T02:41:09;99706.94;;;13.75;100.00
76011;BME280;64701;43.536;1.478;2023-03-12T02:43:35;99717.97;;;13.78;100.00
76011;BME280;64701;43.536;1.478;2023-03-12T02:46:00;99713.47;;;13.79;100.00
76011;BME280;64701;43.536;1.478;2023-03-12T02:48:25;99723.50;;;13.77;99.81
76011;BME280;64701;43.536;1.478;2023-03-12T02:50:50;99726.16;;;13.77;100.00
76011;BME280;64701;43.536;1.478;2023-03-12T02:53:16;99732.72;;;13.81;99.63
76011;BME280;64701;43.536;1.478;2023-03-12T02:55:41;99724.50;;;13.82;99.47
76011;BME280;64701;43.536;1.478;2023-03-12T02:58:06;99725.75;;;13.86;99.10
76011;BME280;64701;43.536;1.478;2023-03-12T03:00:32;99730.25;;;13.86;99.27
76011;BME280;64701;43.536;1.478;2023-03-12T03:02:57;99733.94;;;13.85;99.45
76011;BME280;64701;43.536;1.478;2023-03-12T03:05:23;99728.22;;;13.88;98.81
76011;BME280;64701;43.536;1.478;2023-03-12T03:07:48;99723.91;;;13.80;99.62
76011;BME280;64701;43.536;1.478;2023-03-12T03:10:13;99732.09;;;13.79;99.56
76011;BME280;64701;43.536;1.478;2023-03-12T03:12:41;99736.81;;;13.77;99.78
76011;BME280;64701;43.536;1.478;2023-03-12T03:15:06;99741.72;;;13.73;99.26
76011;BME280;64701;43.536;1.478;2023-03-12T03:17:32;99727.78;;;13.78;98.43
76011;BME280;64701;43.536;1.478;2023-03-12T03:19:57;99738.44;;;13.71;98.90
76011;BME280;64701;43.536;1.478;2023-03-12T03:22:22;99736.81;;;13.77;98.44
76011;BME280;64701;43.536;1.478;2023-03-12T03:24:48;99747.06;;;13.73;98.55
76011;BME280;64701;43.536;1.478;2023-03-12T03:27:14;99740.09;;;13.72;98.43
76011;BME280;64701;43.536;1.478;2023-03-12T03:29:39;99742.94;;;13.71;98.93
76011;BME280;64701;43.536;1.478;2023-03-12T03:32:05;99761.38;;;13.66;99.41
76011;BME280;64701;43.536;1.478;2023-03-12T03:34:30;99756.88;;;13.60;99.58
76011;BME280;64701;43.536;1.478;2023-03-12T03:36:55;99760.59;;;13.45;100.00
76011;BME280;64701;43.536;1.478;2023-03-12T03:39:21;99763.44;;;13.51;100.00
76011;BME280;64701;43.536;1.478;2023-03-12T03:41:47;99760.78;;;13.51;100.00
76011;BME280;64701;43.536;1.478;2023-03-12T03:44:12;99760.16;;;13.55;99.92
76011;BME280;64701;43.536;1.478;2023-03-12T03:46:38;99757.31;;;13.57;99.32
76011;BME280;64701;43.536;1.478;2023-03-12T03:49:04;99779.19;;;13.59;99.41
76011;BME280;64701;43.536;1.478;2023-03-12T03:51:29;99772.25;;;13.64;98.62
76011;BME280;64701;43.536;1.478;2023-03-12T03:53:54;99763.03;;;13.67;98.34
76011;BME280;64701;43.536;1.478;2023-03-12T03:56:20;99765.28;;;13.70;98.04
76011;BME280;64701;43.536;1.478;2023-03-12T03:58:45;99770.81;;;13.68;98.43
76011;BME280;64701;43.536;1.478;2023-03-12T04:01:11;99771.81;;;13.74;97.74
76011;BME280;64701;43.536;1.478;2023-03-12T04:03:37;99781.44;;;13.75;97.64
76011;BME280;64701;43.536;1.478;2023-03-12T04:06:03;99781.84;;;13.78;97.23
76011;BME280;64701;43.536;1.478;2023-03-12T04:08:29;99784.94;;;13.75;98.08
76011;BME280;64701;43.536;1.478;2023-03-12T04:10:56;99785.53;;;13.77;97.74
76011;BME280;64701;43.536;1.478;2023-03-12T04:13:22;99794.75;;;13.81;96.81
76011;BME280;64701;43.536;1.478;2023-03-12T04:15:48;99804.78;;;13.86;96.25
76011;BME280;64701;43.536;1.478;2023-03-12T04:18:13;99816.63;;;13.77;97.77
76011;BME280;64701;43.536;1.478;2023-03-12T04:20:39;99815.84;;;13.57;96.54
76011;BME280;64701;43.536;1.478;2023-03-12T04:23:04;99820.28;;;13.30;96.10
76011;BME280;64701;43.536;1.478;2023-03-12T04:25:29;99833.34;;;13.18;95.48
76011;BME280;64701;43.536;1.478;2023-03-12T04:27:54;99827.00;;;13.13;95.60
76011;BME280;64701;43.536;1.478;2023-03-12T04:30:20;99830.78;;;12.90;95.76
76011;BME280;64701;43.536;1.478;2023-03-12T04:32:45;99834.03;;;12.86;96.20
76011;BME280;64701;43.536;1.478;2023-03-12T04:35:10;99834.84;;;12.80;96.69
76011;BME280;64701;43.536;1.478;2023-03-12T04:37:36;99831.31;;;12.73;97.15
76011;BME280;64701;43.536;1.478;2023-03-12T04:40:02;99831.47;;;12.64;98.09
76011;BME280;64701;43.536;1.478;2023-03-12T04:42:30;99832.34;;;12.72;97.65
76011;BME280;64701;43.536;1.478;2023-03-12T04:44:55;99836.84;;;12.71;97.72
76011;BME280;64701;43.536;1.478;2023-03-12T04:47:20;99836.78;;;12.64;98.29
76011;BME280;64701;43.536;1.478;2023-03-12T04:49:45;99841.72;;;12.67;98.49
76011;BME280;64701;43.536;1.478;2023-03-12T04:52:11;99839.06;;;12.67;97.92
76011;BME280;64701;43.536;1.478;2023-03-12T04:54:36;99846.63;;;12.71;97.93
76011;BME280;64701;43.536;1.478;2023-03-12T04:57:01;99840.91;;;12.67;97.97
76011;BME280;64701;43.536;1.478;2023-03-12T04:59:27;99843.38;;;12.68;97.50
76011;BME280;64701;43.536;1.478;2023-03-12T05:01:52;99858.91;;;12.72;97.36
76011;BME280;64701;43.536;1.478;2023-03-12T05:04:17;99855.25;;;12.73;96.99
76011;BME280;64701;43.536;1.478;2023-03-12T05:06:42;99856.06;;;12.73;96.68
76011;BME280;64701;43.536;1.478;2023-03-12T05:09:08;99850.31;;;12.69;96.88
76011;BME280;64701;43.536;1.478;2023-03-12T05:11:33;99858.91;;;12.72;96.14
76011;BME280;64701;43.536;1.478;2023-03-12T05:13:58;99851.09;;;12.63;96.06
76011;BME280;64701;43.536;1.478;2023-03-12T05:16:23;99849.69;;;12.67;96.03
76011;BME280;64701;43.536;1.478;2023-03-12T05:18:49;99863.03;;;12.74;95.44
76011;BME280;64701;43.536;1.478;2023-03-12T05:21:15;99858.75;;;12.80;94.70
76011;BME280;64701;43.536;1.478;2023-03-12T05:23:41;99873.28;;;12.84;94.40
76011;BME280;64701;43.536;1.478;2023-03-12T05:26:28;99865.53;;;12.89;93.88
76011;BME280;64701;43.536;1.478;2023-03-12T05:28:52;99867.81;;;12.92;93.28
76011;BME280;64701;43.536;1.478;2023-03-12T05:31:18;99868.41;;;12.94;92.91
76011;BME280;64701;43.536;1.478;2023-03-12T05:33:44;99878.44;;;12.92;93.00
76011;BME280;64701;43.536;1.478;2023-03-12T05:36:09;99868.41;;;12.94;93.01
76011;BME280;64701;43.536;1.478;2023-03-12T05:38:35;99872.72;;;12.95;93.04
76011;BME280;64701;43.536;1.478;2023-03-12T05:41:01;99867.19;;;12.96;92.53
76011;BME280;64701;43.536;1.478;2023-03-12T05:43:26;99869.66;;;12.98;92.71
76011;BME280;64701;43.536;1.478;2023-03-12T05:45:52;99870.50;;;12.98;92.38
76011;BME280;64701;43.536;1.478;2023-03-12T05:48:17;99883.97;;;12.97;92.32
76011;BME280;64701;43.536;1.478;2023-03-12T05:50:43;99879.00;;;12.87;93.00
76011;BME280;64701;43.536;1.478;2023-03-12T05:53:08;99866.53;;;12.88;93.56
76011;BME280;64701;43.536;1.478;2023-03-12T05:55:34;99860.84;;;12.91;93.11
76011;BME280;64701;43.536;1.478;2023-03-12T05:58:00;99866.75;;;12.86;92.98
76011;BME280;64701;43.536;1.478;2023-03-12T06:00:26;99874.50;;;12.88;93.48
76011;BME280;64701;43.536;1.478;2023-03-12T06:02:51;99884.72;;;12.84;93.45
76011;BME280;64701;43.536;1.478;2023-03-12T06:05:16;99891.50;;;12.87;93.39
76011;BME280;64701;43.536;1.478;2023-03-12T06:07:41;99883.28;;;12.82;93.51
76011;BME280;64701;43.536;1.478;2023-03-12T06:10:07;99886.38;;;12.85;93.31
76011;BME280;64701;43.536;1.478;2023-03-12T06:12:32;99884.53;;;12.86;93.29
76011;BME280;64701;43.536;1.478;2023-03-12T06:14:58;99877.81;;;12.90;92.76
76011;BME280;64701;43.536;1.478;2023-03-12T06:17:23;99880.69;;;12.95;92.53
76011;BME280;64701;43.536;1.478;2023-03-12T06:19:51;99883.53;;;12.93;93.16
76011;BME280;64701;43.536;1.478;2023-03-12T06:22:17;99877.00;;;12.96;92.47
76011;BME280;64701;43.536;1.478;2023-03-12T06:24:42;99874.97;;;12.98;92.26
76011;BME280;64701;43.536;1.478;2023-03-12T06:27:11;99878.88;;;13.02;91.94
76011;BME280;64701;43.536;1.478;2023-03-12T06:29:36;99882.16;;;13.04;91.55
76011;BME280;64701;43.536;1.478;2023-03-12T06:32:01;99893.41;;;13.06;91.80
76011;BME280;64701;43.536;1.478;2023-03-12T06:34:27;99889.72;;;13.07;91.87
76011;BME280;64701;43.536;1.478;2023-03-12T06:36:52;99884.03;;;13.10;91.35
76011;BME280;64701;43.536;1.478;2023-03-12T06:39:17;99881.16;;;13.12;91.32
76011;BME280;64701;43.536;1.478;2023-03-12T06:41:43;99882.63;;;13.14;91.03
76011;BME280;64701;43.536;1.478;2023-03-12T06:44:08;99887.75;;;13.16;90.92
76011;BME280;64701;43.536;1.478;2023-03-12T06:46:33;99889.34;;;13.10;91.91
76011;BME280;64701;43.536;1.478;2023-03-12T06:48:58;99890.97;;;13.11;92.15
76011;BME280;64701;43.536;1.478;2023-03-12T06:51:24;99890.16;;;13.11;92.16
76011;BME280;64701;43.536;1.478;2023-03-12T06:53:49;99895.94;;;13.14;91.89
76011;BME280;64701;43.536;1.478;2023-03-12T06:56:14;99905.75;;;13.14;92.35
76011;BME280;64701;43.536;1.478;2023-03-12T06:58:40;99907.38;;;13.15;92.71
76011;BME280;64701;43.536;1.478;2023-03-12T07:01:05;99912.22;;;13.11;93.21
76011;BME280;64701;43.536;1.478;2023-03-12T07:03:30;99911.25;;;13.12;92.97
76011;BME280;64701;43.536;1.478;2023-03-12T07:05:56;99904.91;;;13.13;93.01
76011;BME280;64701;43.536;1.478;2023-03-12T07:08:22;99908.81;;;13.17;92.95
76011;BME280;64701;43.536;1.478;2023-03-12T07:10:48;99905.59;;;13.22;92.40
76011;BME280;64701;43.536;1.478;2023-03-12T07:13:13;99911.50;;;13.24;92.29
76011;BME280;64701;43.536;1.478;2023-03-12T07:15:39;99917.44;;;13.26;92.47
76011;BME280;64701;43.536;1.478;2023-03-12T07:18:04;99916.03;;;13.30;91.95
76011;BME280;64701;43.536;1.478;2023-03-12T07:20:30;99910.31;;;13.33;91.85
76011;BME280;64701;43.536;1.478;2023-03-12T07:22:56;99914.41;;;13.35;91.72
76011;BME280;64701;43.536;1.478;2023-03-12T07:25:21;99918.31;;;13.39;91.23
76011;BME280;64701;43.536;1.478;2023-03-12T07:27:46;99917.31;;;13.40;91.56
76011;BME280;64701;43.536;1.478;2023-03-12T07:30:11;99912.19;;;13.39;91.66
76011;BME280;64701;43.536;1.478;2023-03-12T07:32:37;99918.53;;;13.44;91.25
76011;BME280;64701;43.536;1.478;2023-03-12T07:35:03;99910.78;;;13.49;91.04
76011;BME280;64701;43.536;1.478;2023-03-12T07:37:28;99906.47;;;13.55;91.08
76011;BME280;64701;43.536;1.478;2023-03-12T07:39:53;99899.53;;;13.61;90.83
76011;BME280;64701;43.536;1.478;2023-03-12T07:42:20;99910.00;;;13.62;90.89
76011;BME280;64701;43.536;1.478;2023-03-12T07:44:45;99911.19;;;13.60;91.33
76011;BME280;64701;43.536;1.478;2023-03-12T07:47:10;99907.53;;;13.61;91.22
76011;BME280;64701;43.536;1.478;2023-03-12T07:49:35;99917.16;;;13.62;91.18
76011;BME280;64701;43.536;1.478;2023-03-12T07:52:01;99905.50;;;13.63;91.22
76011;BME280;64701;43.536;1.478;2023-03-12T07:54:26;99908.34;;;13.68;90.86
76011;BME280;64701;43.536;1.478;2023-03-12T07:56:55;99905.09;;;13.72;90.87
76011;BME280;64701;43.536;1.478;2023-03-12T07:59:20;99911.03;;;13.81;90.49
76011;BME280;64701;43.536;1.478;2023-03-12T08:01:46;99914.53;;;13.88;90.40
76011;BME280;64701;43.536;1.478;2023-03-12T08:04:11;99920.25;;;13.92;90.58
76011;BME280;64701;43.536;1.478;2023-03-12T08:06:37;99917.19;;;13.95;90.59
76011;BME280;64701;43.536;1.478;2023-03-12T08:09:06;99911.47;;;13.98;90.44
76011;BME280;64701;43.536;1.478;2023-03-12T08:11:32;99914.53;;;14.01;89.88
76011;BME280;64701;43.536;1.478;2023-03-12T08:13:58;99914.53;;;14.01;89.71
76011;BME280;64701;43.536;1.478;2023-03-12T08:16:23;99909.63;;;13.98;90.35
76011;BME280;64701;43.536;1.478;2023-03-12T08:18:49;99918.22;;;14.00;89.96
76011;BME280;64701;43.536;1.478;2023-03-12T08:21:14;99920.28;;;13.98;89.83
76011;BME280;64701;43.536;1.478;2023-03-12T08:23:40;99920.88;;;14.00;90.19
76011;BME280;64701;43.536;1.478;2023-03-12T08:26:05;99915.78;;;13.99;90.44
76011;BME280;64701;43.536;1.478;2023-03-12T08:28:31;99906.97;;;13.98;90.54
76011;BME280;64701;43.536;1.478;2023-03-12T08:30:57;99913.50;;;14.02;90.90
76011;BME280;64701;43.536;1.478;2023-03-12T08:33:23;99918.63;;;14.04;91.59
76011;BME280;64701;43.536;1.478;2023-03-12T08:35:48;99914.13;;;14.04;91.78
76011;BME280;64701;43.536;1.478;2023-03-12T08:38:14;99914.53;;;14.01;92.52
76011;BME280;64701;43.536;1.478;2023-03-12T08:40:39;99909.81;;;14.03;93.10
76011;BME280;64701;43.536;1.478;2023-03-12T08:43:05;99909.63;;;14.18;92.18
76011;BME280;64701;43.536;1.478;2023-03-12T08:45:31;99911.47;;;14.37;91.28
76011;BME280;64701;43.536;1.478;2023-03-12T08:47:57;99917.63;;;14.51;90.28
76011;BME280;64701;43.536;1.478;2023-03-12T08:50:22;99923.09;;;14.82;89.55
76011;BME280;64701;43.536;1.478;2023-03-12T08:52:49;99924.94;;;14.82;87.91
76011;BME280;64701;43.536;1.478;2023-03-12T08:55:15;99926.78;;;14.81;88.58
76011;BME280;64701;43.536;1.478;2023-03-12T08:57:40;99927.78;;;14.87;88.63
76011;BME280;64701;43.536;1.478;2023-03-12T09:00:06;99916.94;;;14.82;87.90
76011;BME280;64701;43.536;1.478;2023-03-12T09:02:35;99913.88;;;14.78;87.98
76011;BME280;64701;43.536;1.478;2023-03-12T09:05:01;99909.19;;;14.67;88.96
76011;BME280;64701;43.536;1.478;2023-03-12T09:07:26;99919.03;;;14.66;88.96
76011;BME280;64701;43.536;1.478;2023-03-12T09:09:53;99920.06;;;14.65;89.22
76011;BME280;64701;43.536;1.478;2023-03-12T09:12:18;99912.28;;;14.64;89.53
76011;BME280;64701;43.536;1.478;2023-03-12T09:14:44;99915.97;;;14.63;90.01
76011;BME280;64701;43.536;1.478;2023-03-12T09:17:09;99918.44;;;14.58;90.79
76011;BME280;64701;43.536;1.478;2023-03-12T09:19:34;99923.13;;;14.56;91.43
76011;BME280;64701;43.536;1.478;2023-03-12T09:22:00;99939.38;;;14.48;92.12
76011;BME280;64701;43.536;1.478;2023-03-12T09:24:25;99937.09;;;14.45;91.96
76011;BME280;64701;43.536;1.478;2023-03-12T09:26:51;99935.44;;;14.44;92.30
76011;BME280;64701;43.536;1.478;2023-03-12T09:29:16;99929.72;;;14.40;92.66
76011;BME280;64701;43.536;1.478;2023-03-12T09:31:41;99930.56;;;14.41;93.08
76011;BME280;64701;43.536;1.478;2023-03-12T09:34:06;99939.56;;;14.40;93.59
76011;BME280;64701;43.536;1.478;2023-03-12T09:36:32;99939.13;;;14.43;92.85
76011;BME280;64701;43.536;1.478;2023-03-12T09:38:57;99938.53;;;14.47;92.52
76011;BME280;64701;43.536;1.478;2023-03-12T09:41:24;99932.38;;;14.53;91.56
76011;BME280;64701;43.536;1.478;2023-03-12T09:46:45;99925.81;;;14.56;92.25
76011;BME280;64701;43.536;1.478;2023-03-12T09:49:35;99935.84;;;14.60;92.46
76011;BME280;64701;43.536;1.478;2023-03-12T09:51:58;99929.28;;;14.63;92.73
76011;BME280;64701;43.536;1.478;2023-03-12T09:54:33;99936.25;;;14.70;91.98
76011;BME280;64701;43.536;1.478;2023-03-12T09:57:02;99937.47;;;14.75;92.91
76011;BME280;64701;43.536;1.478;2023-03-12T09:59:27;99935.63;;;14.62;92.86
76011;BME280;64701;43.536;1.478;2023-03-12T10:01:56;99940.97;;;14.62;93.38
76011;BME280;64701;43.536;1.478;2023-03-12T10:12:08;99927.16;;;14.91;92.32
76011;BME280;64701;43.536;1.478;2023-03-12T10:27:27;99931.25;;;15.89;91.28
76011;BME280;64701;43.536;1.478;2023-03-12T10:29:52;99924.88;;;16.40;91.31
76011;BME280;64701;43.536;1.478;2023-03-12T10:32:24;99920.50;;;16.89;86.43
76011;BME280;64701;43.536;1.478;2023-03-12T10:34:51;99915.22;;;17.19;84.26
76011;BME280;64701;43.536;1.478;2023-03-12T10:37:22;99920.03;;;17.58;85.13
76011;BME280;64701;43.536;1.478;2023-03-12T10:39:49;99910.38;;;17.75;82.67
76011;BME280;64701;43.536;1.478;2023-03-12T10:42:18;99902.06;;;17.65;80.09
76011;BME280;64701;43.536;1.478;2023-03-12T10:44:48;99916.41;;;17.71;81.90
76011;BME280;64701;43.536;1.478;2023-03-12T10:47:21;99913.16;;;17.50;80.58
76011;BME280;64701;43.536;1.478;2023-03-12T10:49:49;99916.63;;;17.39;80.87
76011;BME280;64701;43.536;1.478;2023-03-12T10:52:18;99911.88;;;17.23;80.75
76011;BME280;64701;43.536;1.478;2023-03-12T10:54:45;99907.28;;;17.12;81.41
76011;BME280;64701;43.536;1.478;2023-03-12T10:57:10;99910.16;;;17.10;82.76
76011;BME280;64701;43.536;1.478;2023-03-12T10:59:37;99905.06;;;17.09;82.48
76011;BME280;64701;43.536;1.478;2023-03-12T11:02:23;99898.44;;;17.11;81.64
76011;BME280;64701;43.536;1.478;2023-03-12T11:04:51;99897.91;;;17.21;81.17
76011;BME280;64701;43.536;1.478;2023-03-12T11:07:21;99895.34;;;17.44;80.28
76011;BME280;64701;43.536;1.478;2023-03-12T11:10:02;99900.00;;;17.79;81.92
76011;BME280;64701;43.536;1.478;2023-03-12T11:12:34;99901.22;;;18.06;80.50
76011;BME280;64701;43.536;1.478;2023-03-12T11:15:16;99904.72;;;18.07;77.92
76011;BME280;64701;43.536;1.478;2023-03-12T11:17:42;99898.53;;;17.94;78.09
76011;BME280;64701;43.536;1.478;2023-03-12T11:22:45;99880.78;;;18.58;76.02
76011;BME280;64701;43.536;1.478;2023-03-12T11:25:19;99883.66;;;19.20;79.04
76011;BME280;64701;43.536;1.478;2023-03-12T11:27:46;99876.44;;;19.77;73.72
76011;BME280;64701;43.536;1.478;2023-03-12T11:30:15;99878.88;;;20.29;76.28
76011;BME280;64701;43.536;1.478;2023-03-12T11:32:42;99878.66;;;20.69;71.95
76011;BME280;64701;43.536;1.478;2023-03-12T11:35:13;99880.16;;;20.82;69.19
76011;BME280;64701;43.536;1.478;2023-03-12T11:43:21;99877.84;;;21.12;65.84
76011;BME280;64701;43.536;1.478;2023-03-12T11:51:26;99875.69;;;20.15;68.10
76011;BME280;64701;43.536;1.478;2023-03-12T12:01:34;99869.81;;;19.11;70.99
76011;BME280;64701;43.536;1.478;2023-03-12T12:04:12;99877.19;;;19.04;71.44
76011;BME280;64701;43.536;1.478;2023-03-12T12:27:07;99842.94;;;19.40;73.01
76011;BME280;64701;43.536;1.478;2023-03-12T12:29:43;99839.66;;;19.49;70.96
76011;BME280;64701;43.536;1.478;2023-03-12T12:32:19;99839.91;;;19.48;71.17
76011;BME280;64701;43.536;1.478;2023-03-12T12:37:45;99827.97;;;20.06;71.47
76011;BME280;64701;43.536;1.478;2023-03-12T12:45:41;99826.66;;;20.63;66.72
76011;BME280;64701;43.536;1.478;2023-03-12T12:50:35;99825.47;;;20.54;66.35
76011;BME280;64701;43.536;1.478;2023-03-12T12:53:13;99826.72;;;20.30;66.22
76011;BME280;64701;43.536;1.478;2023-03-12T12:55:42;99814.28;;;20.07;67.14
76011;BME280;64701;43.536;1.478;2023-03-12T12:58:13;99823.06;;;20.03;67.71
76011;BME280;64701;43.536;1.478;2023-03-12T13:03:11;99811.56;;;20.24;66.27
76011;BME280;64701;43.536;1.478;2023-03-12T13:08:09;99807.06;;;20.29;67.49
76011;BME280;64701;43.536;1.478;2023-03-12T13:10:55;99802.75;;;20.28;65.99
76011;BME280;64701;43.536;1.478;2023-03-12T13:13:20;99802.91;;;20.22;65.74
76011;BME280;64701;43.536;1.478;2023-03-12T13:15:47;99793.00;;;20.06;65.38
76011;BME280;64701;43.536;1.478;2023-03-12T13:26:24;99777.56;;;21.00;65.31
76011;BME280;64701;43.536;1.478;2023-03-12T13:33:45;99769.75;;;21.25;61.16
76011;BME280;64701;43.536;1.478;2023-03-12T13:39:00;99774.00;;;21.48;62.97
76011;BME280;64701;43.536;1.478;2023-03-12T13:41:30;99770.44;;;21.42;63.71
76011;BME280;64701;43.536;1.478;2023-03-12T13:43:56;99775.03;;;21.74;63.09
76011;BME280;64701;43.536;1.478;2023-03-12T13:48:52;99759.94;;;22.10;61.78
76011;BME280;64701;43.536;1.478;2023-03-12T13:51:22;99763.91;;;21.97;58.69
76011;BME280;64701;43.536;1.478;2023-03-12T13:53:58;99761.78;;;22.04;59.58
76011;BME280;64701;43.536;1.478;2023-03-12T13:56:25;99762.44;;;21.84;61.18
76011;BME280;64701;43.536;1.478;2023-03-12T14:01:20;99757.31;;;21.88;61.69
76011;BME280;64701;43.536;1.478;2023-03-12T14:03:51;99765.25;;;21.63;60.87
76011;BME280;64701;43.536;1.478;2023-03-12T14:06:21;99757.25;;;21.14;59.96
76011;BME280;64701;43.536;1.478;2023-03-12T14:18:43;99744.78;;;21.08;60.88
76011;BME280;64701;43.536;1.478;2023-03-12T14:21:11;99739.94;;;21.10;62.75
76011;BME280;64701;43.536;1.478;2023-03-12T14:23:38;99736.00;;;20.91;61.38
76011;BME280;64701;43.536;1.478;2023-03-12T14:26:05;99736.75;;;20.86;62.44
76011;BME280;64701;43.536;1.478;2023-03-12T14:28:36;99745.25;;;20.73;62.76
76011;BME280;64701;43.536;1.478;2023-03-12T14:31:06;99742.78;;;20.71;62.95
76011;BME280;64701;43.536;1.478;2023-03-12T14:33:35;99742.28;;;20.74;62.67
76011;BME280;64701;43.536;1.478;2023-03-12T14:36:11;99744.09;;;20.69;61.69
76011;BME280;64701;43.536;1.478;2023-03-12T14:38:40;99743.38;;;20.73;61.97
76011;BME280;64701;43.536;1.478;2023-03-12T14:41:26;99748.69;;;20.47;62.26
76011;BME280;64701;43.536;1.478;2023-03-12T14:43:53;99737.91;;;20.25;62.70
76011;BME280;64701;43.536;1.478;2023-03-12T14:46:27;99744.28;;;20.19;63.04
76011;BME280;64701;43.536;1.478;2023-03-12T14:48:52;99748.84;;;20.18;63.56
76011;BME280;64701;43.536;1.478;2023-03-12T14:51:25;99744.13;;;20.09;64.64
76011;BME280;64701;43.536;1.478;2023-03-12T14:53:50;99743.56;;;20.07;64.64